Time;durP1;ratioP1;P1;durP2;ratioP2;P2;SDS_P1;SDS_P2;PMS_P1;PMS_P2;Temp;Humidity;BMP_temperature;BMP_pressure;BME280_temperature;BME280_humidity;BME280_pressure;Samples;Min_cycle;Max_cycle;Signal;HPM_P1;HPM_P2
2021/03/07 00:04:32;;;;;;;2.00;1.40;;;19.30;49.50;;;;;;10410548;28;20202;-31
2021/03/07 00:09:54;;;;;;;1.30;1.17;;;19.30;49.50;;;;;;10409896;28;20260;-32
2021/03/07 00:15:17;;;;;;;2.00;1.10;;;19.30;49.50;;;;;;10410352;28;20221;-29
2021/03/07 00:20:39;;;;;;;1.40;0.93;;;19.30;49.40;;;;;;10409856;28;20222;-30
2021/03/07 00:26:01;;;;;;;1.60;1.20;;;19.30;49.50;;;;;;10410122;28;20199;-31
2021/03/07 00:31:23;;;;;;;2.30;0.90;;;19.20;49.50;;;;;;10410208;28;20610;-32
2021/03/07 00:36:46;;;;;;;1.33;1.13;;;19.30;49.60;;;;;;10409542;28;20193;-31
2021/03/07 00:42:07;;;;;;;1.93;1.00;;;19.30;49.60;;;;;;10409496;28;20214;-31
2021/03/07 00:47:29;;;;;;;1.87;0.83;;;19.30;49.50;;;;;;10409393;28;20213;-29
2021/03/07 00:52:52;;;;;;;1.30;1.07;;;19.20;49.50;;;;;;10409490;28;20244;-34
2021/03/07 00:58:14;;;;;;;1.20;0.90;;;19.30;49.50;;;;;;10408606;28;20230;-29
2021/03/07 01:03:36;;;;;;;1.07;0.80;;;19.20;49.60;;;;;;10409078;28;20727;-29
2021/03/07 01:08:58;;;;;;;1.37;0.97;;;19.20;49.60;;;;;;10409282;28;20249;-31
2021/03/07 01:14:20;;;;;;;1.23;1.00;;;19.10;49.50;;;;;;10409639;28;20244;-31
2021/03/07 01:19:41;;;;;;;1.67;1.03;;;19.20;49.50;;;;;;10408969;28;20268;-32
2021/03/07 01:25:06;;;;;;;1.37;0.70;;;19.20;49.40;;;;;;10406674;28;20202;-29
2021/03/07 01:30:29;;;;;;;1.50;1.00;;;19.20;49.40;;;;;;10403509;28;20212;-32
2021/03/07 01:35:51;;;;;;;1.87;1.00;;;19.20;49.50;;;;;;10409381;28;20807;-31
2021/03/07 01:41:13;;;;;;;0.83;0.80;;;19.10;49.50;;;;;;10409356;28;20229;-30
2021/03/07 01:46:35;;;;;;;1.33;1.10;;;19.10;49.50;;;;;;10400420;28;20202;-30
2021/03/07 01:51:57;;;;;;;1.10;0.90;;;19.10;49.40;;;;;;10408499;28;20189;-30
2021/03/07 01:57:22;;;;;;;0.90;0.80;;;19.20;49.40;;;;;;10410308;28;20217;-31
2021/03/07 02:02:43;;;;;;;1.40;1.00;;;19.20;49.40;;;;;;10416384;28;20351;-30
2021/03/07 02:08:06;;;;;;;1.70;1.17;;;19.10;49.40;;;;;;10400610;28;20239;-31
2021/03/07 02:13:32;;;;;;;1.27;0.70;;;19.10;49.40;;;;;;10414530;28;20191;-34
2021/03/07 02:18:55;;;;;;;1.40;1.00;;;19.10;49.40;;;;;;10414657;28;20222;-31
2021/03/07 02:24:18;;;;;;;1.10;0.63;;;19.10;49.40;;;;;;10414662;28;20216;-30
2021/03/07 02:29:39;;;;;;;1.20;0.70;;;19.10;49.30;;;;;;10413975;28;20214;-30
2021/03/07 02:35:05;;;;;;;2.33;1.30;;;19.10;49.30;;;;;;10414418;28;20201;-29
2021/03/07 02:40:30;;;;;;;1.80;1.00;;;19.10;49.40;;;;;;10452342;23;20225;-24
2021/03/07 02:45:55;;;;;;;0.87;0.67;;;19.10;49.50;;;;;;10455849;28;20220;-23
2021/03/07 02:51:17;;;;;;;0.83;0.77;;;19.10;49.50;;;;;;10410892;28;20236;-23
2021/03/07 02:56:42;;;;;;;1.20;1.10;;;19.10;49.40;;;;;;10410767;28;20205;-24
2021/03/07 03:02:05;;;;;;;1.93;0.97;;;19.10;49.30;;;;;;10413066;28;20218;-24
2021/03/07 03:07:28;;;;;;;2.10;0.77;;;19.10;49.20;;;;;;10411461;28;20189;-23
2021/03/07 03:12:51;;;;;;;0.70;0.60;;;19.10;49.40;;;;;;10412363;28;20205;-24
2021/03/07 03:18:13;;;;;;;0.80;0.73;;;19.10;49.50;;;;;;10412404;28;20243;-25
2021/03/07 03:23:35;;;;;;;1.03;0.77;;;19.00;49.40;;;;;;10412504;28;20677;-24
2021/03/07 03:28:58;;;;;;;1.53;0.80;;;19.00;49.40;;;;;;10412333;28;20299;-25
2021/03/07 03:34:20;;;;;;;1.57;1.03;;;19.10;49.30;;;;;;10407971;28;20194;-24
2021/03/07 03:39:45;;;;;;;0.80;0.70;;;19.10;49.20;;;;;;10409788;28;20592;-24
2021/03/07 03:45:10;;;;;;;1.63;0.83;;;19.10;49.10;;;;;;10412565;28;20223;-24
2021/03/07 03:50:36;;;;;;;2.00;1.00;;;19.10;49.20;;;;;;10412514;28;20264;-24
2021/03/07 03:55:59;;;;;;;1.07;0.57;;;19.10;49.30;;;;;;10411470;28;20672;-23
2021/03/07 04:01:22;;;;;;;0.77;0.60;;;19.10;49.40;;;;;;10411350;28;20218;-24
2021/03/07 04:06:45;;;;;;;1.10;0.80;;;19.10;49.30;;;;;;10404964;28;20585;-24
2021/03/07 04:12:08;;;;;;;0.80;0.70;;;19.10;49.20;;;;;;10370307;28;20211;-23
2021/03/07 04:17:32;;;;;;;1.10;0.70;;;19.10;49.10;;;;;;10369608;28;20190;-24
2021/03/07 04:22:54;;;;;;;1.00;0.70;;;19.10;49.20;;;;;;10369147;28;20221;-24
2021/03/07 04:28:17;;;;;;;0.70;0.53;;;19.00;49.30;;;;;;10369646;28;20222;-23
2021/03/07 04:33:41;;;;;;;0.57;0.50;;;19.00;49.30;;;;;;10369993;28;20186;-24
2021/03/07 04:39:04;;;;;;;1.13;0.70;;;19.00;49.40;;;;;;10369633;28;20683;-25
2021/03/07 04:44:26;;;;;;;0.73;0.60;;;19.10;49.30;;;;;;10373040;28;20690;-23
2021/03/07 04:49:48;;;;;;;0.73;0.50;;;19.10;49.30;;;;;;10408550;28;20224;-24
2021/03/07 04:55:12;;;;;;;0.50;0.50;;;19.00;49.30;;;;;;10410143;28;20248;-24
2021/03/07 05:00:33;;;;;;;0.83;0.50;;;19.00;49.40;;;;;;10409575;28;20241;-24
2021/03/07 05:05:56;;;;;;;0.80;0.70;;;19.00;49.50;;;;;;10409507;28;20224;-24
2021/03/07 05:11:21;;;;;;;0.87;0.50;;;19.00;49.40;;;;;;10409533;28;20217;-25
2021/03/07 05:16:42;;;;;;;1.60;0.70;;;19.00;49.30;;;;;;10409843;28;20742;-23
2021/03/07 05:22:05;;;;;;;0.83;0.60;;;19.00;49.20;;;;;;10409026;28;20224;-23
2021/03/07 05:27:26;;;;;;;1.20;0.57;;;19.00;49.40;;;;;;10409828;28;20554;-24
2021/03/07 05:32:48;;;;;;;0.87;0.50;;;19.00;49.50;;;;;;10413275;28;20190;-24
2021/03/07 05:38:11;;;;;;;1.03;0.50;;;18.90;49.50;;;;;;10417599;28;20711;-24
2021/03/07 05:43:33;;;;;;;1.33;0.90;;;18.90;49.60;;;;;;10416335;28;20241;-23
2021/03/07 05:48:54;;;;;;;1.17;0.70;;;18.80;49.50;;;;;;10415692;28;20229;-24
2021/03/07 05:54:17;;;;;;;0.93;0.50;;;18.90;49.60;;;;;;10416294;28;20186;-23
2021/03/07 05:59:39;;;;;;;0.70;0.40;;;18.90;49.50;;;;;;10415259;28;20696;-23
2021/03/07 06:05:01;;;;;;;0.90;0.70;;;18.90;49.40;;;;;;10415918;28;20193;-24
2021/03/07 06:10:26;;;;;;;0.83;0.60;;;18.90;49.20;;;;;;10415835;28;20692;-23
2021/03/07 06:15:48;;;;;;;0.43;0.40;;;19.00;49.10;;;;;;10415650;28;20205;-23
2021/03/07 06:21:28;;;;;;;1.70;0.70;;;19.10;49.60;;;;;;10414860;28;20236;-23
2021/03/07 06:27:03;;;;;;;1.73;0.57;;;19.10;48.90;;;;;;10415116;28;20194;-22
2021/03/07 06:32:25;;;;;;;1.77;0.63;;;19.10;48.80;;;;;;10414736;28;20194;-25
2021/03/07 06:37:58;;;;;;;0.60;0.50;;;19.20;48.80;;;;;;10414269;28;20276;-24
2021/03/07 06:43:23;;;;;;;0.50;0.50;;;19.20;48.70;;;;;;10404655;28;20214;-25
2021/03/07 06:48:45;;;;;;;0.33;0.33;;;19.20;48.70;;;;;;10413937;28;20264;-24
2021/03/07 06:54:17;;;;;;;0.67;0.53;;;19.20;48.60;;;;;;10414588;28;20197;-24
2021/03/07 06:59:48;;;;;;;0.57;0.57;;;19.30;48.60;;;;;;10414035;28;20218;-23
2021/03/07 07:05:10;;;;;;;0.73;0.50;;;19.20;48.70;;;;;;10413654;28;20268;-22
2021/03/07 07:10:57;;;;;;;2.93;0.70;;;19.20;48.80;;;;;;10413505;28;20217;-23
2021/03/07 07:16:20;;;;;;;1.77;0.50;;;19.20;48.80;;;;;;10413699;28;20197;-24
2021/03/07 07:21:42;;;;;;;1.20;0.50;;;19.30;48.70;;;;;;10412442;28;20243;-23
2021/03/07 07:27:04;;;;;;;0.73;0.33;;;19.20;48.60;;;;;;10409633;28;20197;-22
2021/03/07 07:32:32;;;;;;;0.97;0.50;;;19.20;48.60;;;;;;10410243;28;20202;-23
2021/03/07 07:37:56;;;;;;;0.50;0.50;;;19.20;48.60;;;;;;10411091;28;20697;-23
2021/03/07 07:43:18;;;;;;;0.67;0.50;;;19.20;48.70;;;;;;10408700;28;20222;-23
2021/03/07 07:48:40;;;;;;;0.50;0.50;;;19.20;48.70;;;;;;10408813;28;20217;-23
2021/03/07 07:54:03;;;;;;;0.40;0.40;;;19.30;48.60;;;;;;10410544;28;20660;-23
2021/03/07 07:59:51;;;;;;;2.43;0.50;;;19.20;48.50;;;;;;10411788;28;20840;-24
2021/03/07 08:05:46;;;;;;;0.87;0.60;;;19.30;48.40;;;;;;10403064;28;20229;-23
2021/03/07 08:11:26;;;;;;;0.50;0.50;;;19.30;48.40;;;;;;10410197;28;20613;-23
2021/03/07 08:16:48;;;;;;;0.80;0.50;;;19.30;48.40;;;;;;10411089;28;20276;-22
2021/03/07 08:22:11;;;;;;;0.70;0.50;;;19.20;48.60;;;;;;10410478;28;20228;-23
2021/03/07 08:27:38;;;;;;;0.70;0.50;;;19.20;48.60;;;;;;10411165;28;20669;-23
2021/03/07 08:33:22;;;;;;;0.50;0.50;;;19.20;48.50;;;;;;10410715;28;20225;-23
2021/03/07 08:39:15;;;;;;;1.13;0.50;;;19.30;48.50;;;;;;10400289;28;20244;-23
2021/03/07 08:44:37;;;;;;;1.90;0.80;;;19.30;48.70;;;;;;10439775;23;20688;-29
2021/03/07 08:50:05;;;;;;;0.83;0.63;;;19.30;48.80;;;;;;10416066;28;20280;-28
2021/03/07 08:55:27;;;;;;;1.03;0.70;;;19.20;48.60;;;;;;10375110;28;20206;-30
2021/03/07 09:00:51;;;;;;;1.03;0.53;;;19.20;49.20;;;;;;10392730;28;20222;-29
2021/03/07 09:06:13;;;;;;;2.33;0.57;;;19.30;48.60;;;;;;10410638;28;20240;-30
2021/03/07 09:11:37;;;;;;;1.30;0.63;;;19.30;48.80;;;;;;10417206;28;20236;-28
2021/03/07 09:17:00;;;;;;;6.47;0.40;;;19.40;48.70;;;;;;10417045;28;20718;-28
2021/03/07 09:22:24;;;;;;;21.57;3.27;;;19.40;48.70;;;;;;10411261;28;20325;-30
2021/03/07 09:27:46;;;;;;;7.50;2.03;;;19.20;43.10;;;;;;10416573;28;20577;-28
2021/03/07 09:33:10;;;;;;;8.27;2.77;;;18.90;40.40;;;;;;10416767;28;20251;-28
2021/03/07 09:38:43;;;;;;;4.60;1.73;;;18.60;39.70;;;;;;10409061;28;20328;-29
2021/03/07 09:44:11;;;;;;;4.33;2.30;;;18.40;39.00;;;;;;10375973;28;20215;-29
2021/03/07 09:49:33;;;;;;;3.63;1.83;;;18.20;38.70;;;;;;10376118;28;20199;-30
2021/03/07 09:54:56;;;;;;;3.73;1.70;;;18.10;38.80;;;;;;10375938;28;20215;-29
2021/03/07 10:00:24;;;;;;;4.57;2.10;;;18.00;38.80;;;;;;10375065;28;20198;-32
2021/03/07 10:06:10;;;;;;;4.17;1.90;;;18.00;38.90;;;;;;10374416;28;20616;-30
2021/03/07 10:11:32;;;;;;;3.57;1.80;;;17.80;38.90;;;;;;10382873;28;20192;-29
2021/03/07 10:16:55;;;;;;;5.60;1.83;;;17.80;39.10;;;;;;10414899;28;20202;-29
2021/03/07 10:22:16;;;;;;;1.37;1.10;;;17.70;39.20;;;;;;10415410;28;20222;-30
2021/03/07 10:27:38;;;;;;;2.57;1.67;;;17.70;39.40;;;;;;10415769;28;20863;-30
2021/03/07 10:33:16;;;;;;;5.27;2.07;;;17.60;39.40;;;;;;10415363;28;20222;-31
2021/03/07 10:38:39;;;;;;;3.07;1.83;;;17.60;39.50;;;;;;10413961;28;20194;-28
2021/03/07 10:44:03;;;;;;;5.53;1.83;;;17.50;39.90;;;;;;10414577;28;20217;-30
2021/03/07 10:49:26;;;;;;;3.33;1.87;;;17.50;39.80;;;;;;10412843;28;20687;-29
2021/03/07 10:54:47;;;;;;;5.10;2.70;;;17.40;40.00;;;;;;10413982;28;20210;-31
2021/03/07 11:00:10;;;;;;;7.80;3.00;;;17.40;40.30;;;;;;10413616;28;20263;-30
2021/03/07 11:05:33;;;;;;;4.13;2.30;;;17.40;40.40;;;;;;10412348;28;20224;-28
2021/03/07 11:10:54;;;;;;;3.60;2.27;;;17.40;40.80;;;;;;10412770;28;20197;-27
2021/03/07 11:16:16;;;;;;;4.90;2.40;;;17.40;40.50;;;;;;10412673;28;20684;-31
2021/03/07 11:21:38;;;;;;;3.33;2.30;;;17.40;40.50;;;;;;10412590;28;20275;-28
2021/03/07 11:27:00;;;;;;;6.57;2.40;;;17.40;40.60;;;;;;10412256;28;20192;-28
2021/03/07 11:32:22;;;;;;;4.60;2.40;;;17.30;40.60;;;;;;10411889;28;20861;-29
2021/03/07 11:37:44;;;;;;;3.30;1.93;;;17.30;40.50;;;;;;10405982;28;20202;-28
2021/03/07 11:43:06;;;;;;;4.93;2.23;;;17.30;40.70;;;;;;10404150;28;20225;-29
2021/03/07 11:48:28;;;;;;;5.03;2.47;;;17.30;40.80;;;;;;10411705;28;20209;-29
2021/03/07 11:53:51;;;;;;;3.90;2.40;;;17.30;40.70;;;;;;10411327;28;20237;-30
2021/03/07 11:59:13;;;;;;;4.30;2.10;;;17.10;40.70;;;;;;10410699;28;20576;-25
2021/03/07 12:04:35;;;;;;;4.30;2.17;;;17.10;40.80;;;;;;10399519;28;20232;-30
2021/03/07 12:09:57;;;;;;;3.40;1.63;;;17.30;42.00;;;;;;10410192;28;20727;-27
2021/03/07 12:15:19;;;;;;;3.03;1.47;;;17.60;43.20;;;;;;10411487;28;20213;-29
2021/03/07 12:20:40;;;;;;;2.53;1.33;;;17.70;43.80;;;;;;10408590;28;20688;-29
2021/03/07 12:26:03;;;;;;;4.80;1.67;;;17.70;44.20;;;;;;10408809;28;20654;-30
2021/03/07 12:31:25;;;;;;;1.93;1.40;;;17.70;44.60;;;;;;10407197;28;20194;-24
2021/03/07 12:36:46;;;;;;;3.57;1.30;;;17.90;44.90;;;;;;10410742;28;20201;-23
2021/03/07 12:42:09;;;;;;;3.17;1.20;;;17.90;45.00;;;;;;10409914;28;20297;-23
2021/03/07 12:47:31;;;;;;;3.30;1.80;;;17.90;45.10;;;;;;10402413;28;20201;-27
2021/03/07 12:52:52;;;;;;;3.43;1.50;;;17.90;45.30;;;;;;10409742;28;20209;-25
2021/03/07 12:58:15;;;;;;;4.67;1.80;;;18.00;45.40;;;;;;10408598;28;20197;-25
2021/03/07 13:03:36;;;;;;;4.10;1.67;;;18.10;45.60;;;;;;10407685;28;20225;-24
2021/03/07 13:08:58;;;;;;;4.87;2.13;;;18.20;46.00;;;;;;10409833;28;20211;-26
2021/03/07 13:14:21;;;;;;;6.47;2.60;;;18.20;46.60;;;;;;10408364;28;20224;-23
2021/03/07 13:19:42;;;;;;;6.17;2.00;;;18.30;46.80;;;;;;10408405;28;20431;-25
2021/03/07 13:25:05;;;;;;;4.97;2.40;;;18.30;47.00;;;;;;10386884;28;20217;-25
2021/03/07 13:30:27;;;;;;;6.67;2.80;;;18.30;47.00;;;;;;10408454;28;20190;-24
2021/03/07 13:35:49;;;;;;;6.95;2.90;;;18.20;47.50;;;;;;10401711;28;20451;-26
2021/03/07 13:41:11;;;;;;;8.00;2.97;;;18.50;47.00;;;;;;10395879;28;20570;-26
2021/03/07 13:46:33;;;;;;;4.17;2.50;;;18.60;46.90;;;;;;10392739;28;20198;-27
2021/03/07 13:51:55;;;;;;;6.20;2.63;;;18.60;47.00;;;;;;10400462;28;20225;-26
2021/03/07 13:57:16;;;;;;;5.07;2.63;;;18.60;47.10;;;;;;10415954;28;20193;-25
2021/03/07 14:02:39;;;;;;;6.23;2.77;;;18.60;47.10;;;;;;10411133;28;20225;-28
2021/03/07 14:08:01;;;;;;;6.90;3.53;;;18.60;47.20;;;;;;10399928;28;20193;-27
2021/03/07 14:13:22;;;;;;;8.03;3.77;;;18.70;47.10;;;;;;10405411;28;20225;-27
2021/03/07 14:18:46;;;;;;;7.07;3.70;;;18.70;47.20;;;;;;10408540;28;20197;-29
2021/03/07 14:24:08;;;;;;;6.67;3.17;;;18.70;47.30;;;;;;10409552;28;20253;-26
2021/03/07 14:29:30;;;;;;;6.70;3.17;;;18.70;47.50;;;;;;10409302;28;20221;-26
2021/03/07 14:34:52;;;;;;;7.70;3.10;;;18.70;47.60;;;;;;10409958;28;20222;-27
2021/03/07 14:40:14;;;;;;;7.40;3.20;;;18.70;47.60;;;;;;10402126;28;20191;-27
2021/03/07 14:45:36;;;;;;;8.60;3.50;;;18.70;47.60;;;;;;10367788;28;20614;-25
2021/03/07 14:50:59;;;;;;;4.07;2.47;;;18.70;47.70;;;;;;10377967;28;20209;-28
2021/03/07 14:56:20;;;;;;;8.50;3.47;;;18.70;47.80;;;;;;10367846;28;20198;-28
2021/03/07 15:01:42;;;;;;;6.27;2.80;;;18.70;48.40;;;;;;10366012;28;20221;-28
2021/03/07 15:07:06;;;;;;;5.97;3.17;;;18.70;47.90;;;;;;10365711;28;20198;-26
2021/03/07 15:12:27;;;;;;;6.67;3.13;;;18.80;48.50;;;;;;10365746;28;20245;-28
2021/03/07 15:17:49;;;;;;;6.10;2.53;;;18.80;48.50;;;;;;10399860;28;20194;-29
2021/03/07 15:23:11;;;;;;;4.77;2.53;;;18.90;47.60;;;;;;10405957;28;20225;-25
2021/03/07 15:28:33;;;;;;;5.00;2.77;;;19.00;47.60;;;;;;10406743;28;20620;-26
2021/03/07 15:33:54;;;;;;;4.53;2.77;;;19.00;47.40;;;;;;10405784;28;20271;-27
2021/03/07 15:39:17;;;;;;;4.43;2.80;;;19.10;47.30;;;;;;10405630;28;20201;-26
2021/03/07 15:44:39;;;;;;;4.93;2.87;;;19.10;47.30;;;;;;10396224;28;20271;-27
2021/03/07 15:50:00;;;;;;;4.63;2.60;;;19.10;47.20;;;;;;10405036;28;20280;-26
2021/03/07 15:55:23;;;;;;;3.90;2.83;;;19.10;47.60;;;;;;10405028;28;20210;-30
2021/03/07 16:00:44;;;;;;;5.17;3.13;;;19.10;47.80;;;;;;10405324;28;20198;-25
2021/03/07 16:06:06;;;;;;;7.27;3.13;;;19.00;48.00;;;;;;10396722;28;20214;-28
2021/03/07 16:11:28;;;;;;;6.37;3.17;;;19.10;48.20;;;;;;10405316;28;20201;-29
2021/03/07 16:16:50;;;;;;;5.40;3.17;;;19.10;48.40;;;;;;10379304;28;20206;-27
2021/03/07 16:22:12;;;;;;;5.47;2.97;;;19.10;49.10;;;;;;10363484;28;20240;-27
2021/03/07 16:27:34;;;;;;;3.77;2.77;;;19.20;48.70;;;;;;10402170;28;20198;-27
2021/03/07 16:32:56;;;;;;;5.07;2.77;;;19.10;48.80;;;;;;10403508;28;20272;-28
2021/03/07 16:38:18;;;;;;;4.10;3.27;;;19.20;48.90;;;;;;10361552;28;20419;-26
2021/03/07 16:43:41;;;;;;;6.70;2.90;;;20.10;46.40;;;;;;10375584;28;20229;-26
2021/03/07 16:49:03;;;;;;;5.00;2.87;;;19.50;48.10;;;;;;10404059;28;20624;-25
2021/03/07 16:54:25;;;;;;;4.27;3.00;;;19.20;49.00;;;;;;10437096;23;20235;-19
2021/03/07 16:59:48;;;;;;;6.27;3.10;;;19.10;49.20;;;;;;10444502;28;20898;-21
2021/03/07 17:05:10;;;;;;;4.63;2.83;;;18.90;49.30;;;;;;10421385;28;20288;-24
2021/03/07 17:10:31;;;;;;;5.87;3.13;;;18.80;49.30;;;;;;10405326;28;20657;-22
2021/03/07 17:15:55;;;;;;;4.93;2.73;;;18.80;49.30;;;;;;10405889;28;20221;-22
2021/03/07 17:21:17;;;;;;;4.10;2.73;;;18.70;49.30;;;;;;10399711;28;20320;-23
2021/03/07 17:26:39;;;;;;;4.37;2.90;;;18.70;49.30;;;;;;10405328;28;20617;-22
2021/03/07 17:32:02;;;;;;;4.63;2.97;;;18.70;49.20;;;;;;10415791;28;20201;-23
2021/03/07 17:37:24;;;;;;;3.87;2.83;;;18.70;49.20;;;;;;10408589;28;20230;-22
2021/03/07 17:42:45;;;;;;;3.37;2.70;;;18.60;49.10;;;;;;10413245;28;20230;-23
2021/03/07 17:48:10;;;;;;;4.00;2.67;;;18.60;49.10;;;;;;10410863;28;20205;-23
2021/03/07 17:53:32;;;;;;;3.70;2.70;;;18.60;49.20;;;;;;10415618;28;20214;-23
2021/03/07 17:58:53;;;;;;;4.27;2.83;;;18.60;49.10;;;;;;10414970;28;20627;-23
2021/03/07 18:04:16;;;;;;;4.30;2.90;;;18.60;49.10;;;;;;10411607;28;20221;-22
2021/03/07 18:09:39;;;;;;;3.40;2.63;;;18.60;49.00;;;;;;10416700;28;20260;-22
2021/03/07 18:15:01;;;;;;;5.10;2.63;;;18.60;49.10;;;;;;10406095;28;20237;-23
2021/03/07 18:20:24;;;;;;;4.07;3.00;;;18.60;49.20;;;;;;10413841;28;20190;-21
2021/03/07 18:25:45;;;;;;;3.90;2.77;;;18.60;49.10;;;;;;10413674;28;20735;-21
2021/03/07 18:31:07;;;;;;;3.73;2.70;;;18.60;49.20;;;;;;10414110;28;20225;-22
2021/03/07 18:36:29;;;;;;;4.53;2.80;;;18.60;49.20;;;;;;10414179;28;20421;-23
2021/03/07 18:41:51;;;;;;;4.70;2.97;;;18.60;49.30;;;;;;10412411;28;20592;-23
2021/03/07 18:47:13;;;;;;;3.67;3.10;;;18.60;49.40;;;;;;10409051;28;20218;-22
2021/03/07 18:52:35;;;;;;;3.47;2.80;;;18.60;49.80;;;;;;10414425;28;20198;-23
2021/03/07 18:57:57;;;;;;;5.90;2.97;;;18.50;50.10;;;;;;10414825;28;20229;-23
2021/03/07 19:03:19;;;;;;;7.50;3.17;;;18.50;50.40;;;;;;10413195;28;20225;-23
2021/03/07 19:08:41;;;;;;;5.00;2.97;;;18.50;50.50;;;;;;10413344;28;20201;-22
2021/03/07 19:14:05;;;;;;;4.03;3.10;;;18.50;50.60;;;;;;10413398;28;20209;-24
2021/03/07 19:19:27;;;;;;;3.30;2.90;;;18.50;51.30;;;;;;10413055;28;20515;-24
2021/03/07 19:24:49;;;;;;;5.07;2.67;;;18.60;50.80;;;;;;10413459;28;20331;-23
2021/03/07 19:30:12;;;;;;;2.83;2.37;;;18.80;50.40;;;;;;10413811;28;20243;-23
2021/03/07 19:35:34;;;;;;;4.13;2.73;;;18.90;50.00;;;;;;10412133;28;20213;-23
2021/03/07 19:40:57;;;;;;;3.77;2.90;;;19.10;49.50;;;;;;10409281;28;20202;-22
2021/03/07 19:46:19;;;;;;;4.83;2.80;;;19.20;49.00;;;;;;10408829;28;20221;-22
2021/03/07 19:51:40;;;;;;;4.27;2.87;;;19.30;48.70;;;;;;10408335;28;20197;-22
2021/03/07 19:57:03;;;;;;;3.83;2.80;;;19.40;48.50;;;;;;10409338;28;20268;-23
2021/03/07 20:02:25;;;;;;;3.53;2.73;;;19.40;48.30;;;;;;10406961;28;20213;-21
2021/03/07 20:07:47;;;;;;;3.60;3.10;;;19.40;48.30;;;;;;10409138;28;20620;-23
2021/03/07 20:13:09;;;;;;;4.53;2.87;;;19.40;48.40;;;;;;10407788;28;20193;-22
2021/03/07 20:18:31;;;;;;;3.50;2.80;;;19.50;48.30;;;;;;10407580;28;20259;-22
2021/03/07 20:23:53;;;;;;;4.37;2.43;;;19.50;48.40;;;;;;10405581;28;20232;-23
2021/03/07 20:29:16;;;;;;;4.57;2.90;;;19.50;48.20;;;;;;10408004;28;20182;-23
2021/03/07 20:34:37;;;;;;;2.70;2.23;;;19.50;48.40;;;;;;10407086;28;20205;-23
2021/03/07 20:39:59;;;;;;;3.37;2.67;;;19.50;48.30;;;;;;10406921;28;20240;-22
2021/03/07 20:45:22;;;;;;;3.10;2.70;;;19.60;48.30;;;;;;10407240;28;20214;-23
2021/03/07 20:50:43;;;;;;;6.33;3.00;;;19.60;48.20;;;;;;10407692;28;20665;-22
2021/03/07 20:56:05;;;;;;;3.33;2.60;;;19.60;48.10;;;;;;10406175;28;20692;-23
2021/03/07 21:01:28;;;;;;;3.20;2.60;;;19.70;48.00;;;;;;10408934;28;20680;-22
2021/03/07 21:06:50;;;;;;;3.77;3.27;;;19.70;48.00;;;;;;10418280;28;20684;-23
2021/03/07 21:12:12;;;;;;;3.53;2.50;;;19.80;47.90;;;;;;10418413;28;20194;-23
2021/03/07 21:17:34;;;;;;;2.80;2.40;;;19.80;48.00;;;;;;10417626;28;20245;-22
2021/03/07 21:22:56;;;;;;;3.97;3.00;;;19.70;48.10;;;;;;10419138;28;20215;-22
2021/03/07 21:28:18;;;;;;;2.83;2.40;;;19.60;48.10;;;;;;10418069;28;20203;-23
2021/03/07 21:33:40;;;;;;;4.63;2.83;;;19.70;48.00;;;;;;10418887;28;20275;-22
2021/03/07 21:39:02;;;;;;;3.30;2.37;;;19.70;47.90;;;;;;10417633;28;20251;-22
2021/03/07 21:44:24;;;;;;;3.40;2.47;;;19.70;48.00;;;;;;10417792;28;20228;-22
2021/03/07 21:49:46;;;;;;;3.37;2.30;;;19.60;48.20;;;;;;10417078;28;20193;-23
2021/03/07 21:55:08;;;;;;;4.00;2.40;;;19.50;48.40;;;;;;10416133;28;20225;-22
2021/03/07 22:00:30;;;;;;;2.63;2.03;;;19.40;48.70;;;;;;10417333;28;20201;-22
2021/03/07 22:05:52;;;;;;;2.40;1.70;;;19.30;48.80;;;;;;10415877;28;20217;-22
2021/03/07 22:11:14;;;;;;;2.53;2.00;;;19.30;48.90;;;;;;10415803;28;20209;-22
2021/03/07 22:16:36;;;;;;;3.07;2.20;;;19.40;48.80;;;;;;10414127;28;20615;-22
2021/03/07 22:21:58;;;;;;;3.90;2.20;;;19.40;48.70;;;;;;10417099;28;20676;-22
2021/03/07 22:27:20;;;;;;;2.40;2.10;;;19.40;48.50;;;;;;10416709;28;20206;-23
2021/03/07 22:32:42;;;;;;;3.33;2.20;;;19.40;48.60;;;;;;10416445;28;20209;-22
2021/03/07 22:38:04;;;;;;;2.27;1.80;;;19.30;48.70;;;;;;10417104;28;20216;-23
2021/03/07 22:43:26;;;;;;;3.97;1.70;;;19.30;48.80;;;;;;10416111;28;20301;-21
2021/03/07 22:48:47;;;;;;;4.13;2.17;;;19.40;48.80;;;;;;10415962;28;20194;-21
2021/03/07 22:54:10;;;;;;;3.30;1.90;;;19.40;48.60;;;;;;10430292;23;20210;-23
2021/03/07 22:59:32;;;;;;;2.53;1.67;;;19.40;48.60;;;;;;10413037;28;20194;-22
2021/03/07 23:04:53;;;;;;;4.70;2.20;;;19.40;48.70;;;;;;10386276;28;20222;-21
2021/03/07 23:10:16;;;;;;;3.00;1.90;;;19.30;48.80;;;;;;10370622;28;20197;-22
2021/03/07 23:15:38;;;;;;;3.57;2.13;;;19.30;48.90;;;;;;10361936;28;20211;-23
2021/03/07 23:21:00;;;;;;;3.27;2.10;;;19.30;49.30;;;;;;10363528;28;20198;-23
2021/03/07 23:26:23;;;;;;;2.10;1.60;;;19.40;48.70;;;;;;10362647;28;20222;-23
2021/03/07 23:31:44;;;;;;;2.67;1.80;;;19.30;48.70;;;;;;10369184;28;20194;-22
2021/03/07 23:37:06;;;;;;;4.40;1.87;;;19.30;48.80;;;;;;10363130;28;20581;-22
2021/03/07 23:42:28;;;;;;;3.03;1.70;;;19.30;48.90;;;;;;10357790;28;20212;-22
2021/03/07 23:47:50;;;;;;;3.20;1.80;;;19.30;48.80;;;;;;10370841;28;20268;-22
2021/03/07 23:53:12;;;;;;;2.47;1.60;;;19.40;48.80;;;;;;10352052;28;20730;-22
2021/03/07 23:58:35;;;;;;;3.07;1.97;;;19.30;48.70;;;;;;10358405;28;20222;-22
